Time;durP1;ratioP1;P1;durP2;ratioP2;P2;SDS_P1;SDS_P2;PMS_P1;PMS_P2;Temp;Humidity;BMP_temperature;BMP_pressure;BME280_temperature;BME280_humidity;BME280_pressure;Samples;Min_cycle;Max_cycle;Signal;HPM_P1;HPM_P2
2023/07/22 00:00:15;;;;;;;15.82;5.35;;;13.30;99.90;;;;;;5095753;27;20058;-81
2023/07/22 00:02:42;;;;;;;13.20;5.32;;;13.30;99.90;;;;;;5096062;28;20895;-82
2023/07/22 00:05:12;;;;;;;12.93;4.93;;;13.30;99.90;;;;;;5128857;28;20123;-81
2023/07/22 00:07:40;;;;;;;15.15;5.28;;;13.30;99.90;;;;;;5112431;28;20032;-81
2023/07/22 00:10:10;;;;;;;14.85;5.75;;;13.30;99.90;;;;;;5132951;27;20577;-82
2023/07/22 00:12:36;;;;;;;11.55;5.38;;;13.30;99.90;;;;;;5119333;28;20071;-82
2023/07/22 00:15:04;;;;;;;11.98;5.03;;;13.20;99.90;;;;;;5094709;28;20071;-81
2023/07/22 00:17:30;;;;;;;12.80;5.35;;;13.20;99.90;;;;;;5095355;28;20377;-82
2023/07/22 00:19:57;;;;;;;8.27;4.60;;;13.20;99.90;;;;;;5144897;28;20081;-82
2023/07/22 00:22:26;;;;;;;10.57;4.80;;;13.20;99.90;;;;;;5103607;28;20050;-82
2023/07/22 00:24:53;;;;;;;11.32;4.88;;;13.20;99.90;;;;;;5106782;28;20036;-81
2023/07/22 00:27:20;;;;;;;10.88;4.70;;;13.10;99.90;;;;;;5111813;28;20088;-82
2023/07/22 00:29:46;;;;;;;12.38;5.28;;;13.20;99.90;;;;;;5113583;27;20042;-82
2023/07/22 00:32:13;;;;;;;10.30;5.15;;;13.10;99.90;;;;;;5123830;28;20069;-82
2023/07/22 00:34:40;;;;;;;9.82;4.70;;;13.20;99.90;;;;;;5117487;28;20385;-82
2023/07/22 00:37:07;;;;;;;10.23;4.50;;;13.10;99.90;;;;;;5111250;28;20054;-81
2023/07/22 00:39:34;;;;;;;8.60;4.38;;;13.10;99.90;;;;;;5111547;28;20035;-82
2023/07/22 00:42:00;;;;;;;12.70;4.30;;;13.10;99.90;;;;;;5112485;27;20102;-82
2023/07/22 00:44:27;;;;;;;10.07;4.43;;;13.00;99.90;;;;;;5111512;28;20079;-82
2023/07/22 00:46:56;;;;;;;10.43;4.90;;;13.00;99.90;;;;;;5110864;28;20122;-82
2023/07/22 00:49:25;;;;;;;9.85;4.30;;;13.00;99.90;;;;;;5129632;27;20046;-81
2023/07/22 00:51:52;;;;;;;10.38;4.70;;;13.00;99.90;;;;;;5164889;27;20540;-82
2023/07/22 00:54:19;;;;;;;14.02;5.00;;;13.00;99.90;;;;;;5111178;28;20043;-82
2023/07/22 00:56:47;;;;;;;12.40;4.75;;;13.00;99.90;;;;;;5111178;28;20035;-82
2023/07/22 00:59:15;;;;;;;10.43;4.57;;;12.90;99.90;;;;;;5144692;28;20136;-82
2023/07/22 01:01:41;;;;;;;11.23;4.60;;;12.90;99.90;;;;;;5111114;28;20407;-82
2023/07/22 01:04:08;;;;;;;13.13;4.82;;;12.90;99.90;;;;;;5105500;28;20237;-82
2023/07/22 01:06:35;;;;;;;12.20;5.07;;;12.90;99.90;;;;;;5106333;28;20035;-82
2023/07/22 01:09:02;;;;;;;13.20;4.55;;;12.90;99.90;;;;;;5127701;28;20047;-81
2023/07/22 01:11:29;;;;;;;12.18;4.70;;;12.80;99.90;;;;;;5111103;28;20035;-82
2023/07/22 01:13:59;;;;;;;8.98;4.88;;;12.80;99.90;;;;;;5110633;28;20035;-81
2023/07/22 01:16:27;;;;;;;10.35;4.30;;;12.80;99.90;;;;;;5142169;27;20538;-82
2023/07/22 01:18:55;;;;;;;11.88;4.55;;;12.80;99.90;;;;;;5147488;27;20130;-81
2023/07/22 01:21:25;;;;;;;10.20;4.03;;;12.80;99.90;;;;;;5127510;28;20146;-82
2023/07/22 01:23:53;;;;;;;10.90;4.50;;;12.80;99.90;;;;;;5111697;28;20781;-82
2023/07/22 01:26:20;;;;;;;7.93;3.72;;;12.70;99.90;;;;;;5110946;28;20048;-82
2023/07/22 01:28:46;;;;;;;10.82;4.10;;;12.70;99.90;;;;;;5110692;28;20799;-82
2023/07/22 01:31:13;;;;;;;8.68;4.22;;;12.80;99.90;;;;;;5110285;28;20078;-82
2023/07/22 01:33:40;;;;;;;8.95;3.42;;;12.80;99.90;;;;;;5110685;28;20487;-82
2023/07/22 01:36:07;;;;;;;8.10;3.80;;;12.80;99.90;;;;;;5096528;28;20781;-82
2023/07/22 01:38:35;;;;;;;9.10;3.60;;;12.70;99.90;;;;;;5124997;28;20042;-82
2023/07/22 01:41:02;;;;;;;10.30;3.42;;;12.70;99.90;;;;;;5109673;28;20063;-81
2023/07/22 01:43:29;;;;;;;9.90;3.67;;;12.70;99.90;;;;;;5117074;28;20393;-82
2023/07/22 01:45:56;;;;;;;8.30;3.35;;;12.70;99.90;;;;;;5127155;28;20043;-82
2023/07/22 01:48:23;;;;;;;8.85;3.38;;;12.70;99.90;;;;;;5111724;28;20035;-82
2023/07/22 01:50:50;;;;;;;8.05;3.20;;;12.80;99.90;;;;;;5148134;27;20147;-82
2023/07/22 01:53:16;;;;;;;7.97;3.15;;;12.70;99.90;;;;;;5119593;28;20073;-82
2023/07/22 01:55:44;;;;;;;6.50;2.80;;;12.70;99.90;;;;;;5110332;28;20042;-82
2023/07/22 01:58:11;;;;;;;7.43;3.08;;;12.70;99.90;;;;;;5127195;28;20047;-81
2023/07/22 02:00:38;;;;;;;9.40;3.28;;;12.70;99.90;;;;;;5111690;28;20114;-82
2023/07/22 02:03:05;;;;;;;7.50;2.88;;;12.70;99.90;;;;;;5113492;28;20074;-82
2023/07/22 02:05:31;;;;;;;8.18;2.80;;;12.70;99.90;;;;;;5115863;28;20044;-82
2023/07/22 02:07:58;;;;;;;10.18;3.28;;;12.70;99.90;;;;;;5109962;28;20035;-82
2023/07/22 02:10:25;;;;;;;6.05;3.10;;;12.70;99.90;;;;;;5110272;28;20040;-82
2023/07/22 02:12:51;;;;;;;8.43;2.70;;;12.70;99.90;;;;;;5110480;28;20054;-81
2023/07/22 02:15:19;;;;;;;6.35;3.30;;;12.60;99.90;;;;;;5094353;28;20387;-81
2023/07/22 02:17:45;;;;;;;6.55;3.33;;;12.60;99.90;;;;;;5110329;28;20502;-82
2023/07/22 02:20:12;;;;;;;7.63;3.20;;;12.60;99.90;;;;;;5093063;28;20043;-82
2023/07/22 02:22:39;;;;;;;8.18;3.63;;;12.60;99.90;;;;;;5118474;28;20063;-82
2023/07/22 02:25:06;;;;;;;7.47;3.15;;;12.50;99.90;;;;;;5120601;28;20050;-82
2023/07/22 02:27:33;;;;;;;8.20;3.40;;;12.60;99.90;;;;;;5110077;28;20076;-82
2023/07/22 02:30:00;;;;;;;5.97;2.85;;;12.50;99.90;;;;;;5112068;28;20039;-82
2023/07/22 02:32:27;;;;;;;7.40;2.78;;;12.50;99.90;;;;;;5113587;28;20047;-82
2023/07/22 02:34:54;;;;;;;8.88;2.97;;;12.50;99.90;;;;;;5144722;28;20376;-82
2023/07/22 02:37:20;;;;;;;6.95;3.10;;;12.50;99.90;;;;;;5093065;28;20039;-82
2023/07/22 02:39:47;;;;;;;5.85;2.80;;;12.50;99.90;;;;;;5093240;28;20056;-81
2023/07/22 02:42:14;;;;;;;8.60;3.20;;;12.40;99.90;;;;;;5137347;28;20047;-82
2023/07/22 02:44:40;;;;;;;10.63;3.25;;;12.30;99.90;;;;;;5130372;28;20046;-82
2023/07/22 02:47:07;;;;;;;7.40;3.25;;;12.30;99.90;;;;;;5111919;28;20580;-81
2023/07/22 02:49:34;;;;;;;6.82;3.30;;;12.30;99.90;;;;;;5093515;28;20042;-81
2023/07/22 02:52:01;;;;;;;8.82;4.18;;;12.20;99.90;;;;;;5093207;28;20134;-81
2023/07/22 02:54:27;;;;;;;8.27;3.63;;;12.20;99.90;;;;;;5112690;28;20050;-81
2023/07/22 02:56:54;;;;;;;11.02;3.67;;;12.10;99.90;;;;;;5097148;28;20074;-82
2023/07/22 02:59:21;;;;;;;9.82;3.88;;;12.10;99.90;;;;;;5096451;28;20042;-82
2023/07/22 03:01:47;;;;;;;9.13;4.38;;;12.10;99.90;;;;;;5124923;27;20035;-82
2023/07/22 03:04:14;;;;;;;8.82;3.88;;;12.10;99.90;;;;;;5116654;27;20570;-82
2023/07/22 03:06:42;;;;;;;8.85;3.78;;;12.00;99.90;;;;;;5116816;27;20724;-82
2023/07/22 03:09:08;;;;;;;8.35;3.75;;;12.00;99.90;;;;;;5133383;27;20047;-82
2023/07/22 03:11:35;;;;;;;7.97;3.78;;;12.00;99.90;;;;;;5117185;27;20031;-82
2023/07/22 03:14:02;;;;;;;10.80;3.72;;;12.00;99.90;;;;;;5133697;27;20065;-82
2023/07/22 03:16:28;;;;;;;11.15;3.63;;;12.00;99.90;;;;;;5112557;27;20035;-82
2023/07/22 03:18:55;;;;;;;8.57;3.80;;;12.00;99.90;;;;;;5112629;28;20072;-82
2023/07/22 03:21:22;;;;;;;10.55;4.30;;;12.00;99.90;;;;;;5112002;28;20488;-82
2023/07/22 03:23:50;;;;;;;8.35;3.60;;;12.00;99.90;;;;;;5097268;28;20471;-82
2023/07/22 03:26:17;;;;;;;10.50;3.85;;;12.00;99.90;;;;;;5112602;28;20104;-82
2023/07/22 03:28:44;;;;;;;7.28;3.47;;;12.00;99.90;;;;;;5121632;27;20069;-82
2023/07/22 03:31:10;;;;;;;11.43;3.83;;;11.90;99.90;;;;;;5113029;28;20074;-82
2023/07/22 03:33:37;;;;;;;9.20;3.78;;;11.90;99.90;;;;;;5144509;27;20047;-82
2023/07/22 03:36:04;;;;;;;9.43;4.13;;;11.90;99.90;;;;;;5150800;27;20130;-82
2023/07/22 03:38:30;;;;;;;9.65;3.92;;;11.90;99.90;;;;;;5149914;27;20042;-82
2023/07/22 03:40:57;;;;;;;10.32;3.85;;;11.80;99.90;;;;;;5106669;27;20059;-82
2023/07/22 03:43:24;;;;;;;9.82;3.92;;;11.80;99.90;;;;;;5127066;27;20031;-82
2023/07/22 03:45:50;;;;;;;8.60;3.67;;;11.80;99.90;;;;;;5114364;27;20510;-82
2023/07/22 03:48:17;;;;;;;10.43;4.38;;;11.80;99.90;;;;;;5097626;28;20114;-81
2023/07/22 03:50:44;;;;;;;9.13;4.47;;;11.70;99.90;;;;;;5101274;27;20118;-82
2023/07/22 03:53:10;;;;;;;13.35;4.15;;;11.70;99.90;;;;;;5099192;28;20051;-82
2023/07/22 03:55:37;;;;;;;10.48;4.40;;;11.70;99.90;;;;;;5125196;27;20542;-82
2023/07/22 03:58:04;;;;;;;11.07;4.85;;;11.70;99.90;;;;;;5124312;28;20514;-82
2023/07/22 04:00:31;;;;;;;10.00;4.80;;;11.60;99.90;;;;;;5111358;28;20556;-81
2023/07/22 04:02:57;;;;;;;11.80;4.82;;;11.60;99.90;;;;;;5120203;28;20066;-82
2023/07/22 04:05:24;;;;;;;13.52;5.10;;;11.70;99.90;;;;;;5107295;28;20036;-82
2023/07/22 04:07:51;;;;;;;10.98;4.55;;;11.60;99.90;;;;;;5110277;27;20074;-82
2023/07/22 04:10:17;;;;;;;10.88;4.57;;;11.60;99.90;;;;;;5103253;27;20039;-82
2023/07/22 04:12:44;;;;;;;10.35;4.40;;;11.70;99.90;;;;;;5128465;27;20148;-82
2023/07/22 04:15:12;;;;;;;10.23;5.00;;;11.70;99.90;;;;;;5105633;28;20495;-82
2023/07/22 04:17:39;;;;;;;12.68;4.65;;;11.70;99.90;;;;;;5118111;27;20051;-82
2023/07/22 04:20:08;;;;;;;9.90;5.07;;;11.80;99.90;;;;;;5121516;27;20038;-82
2023/07/22 04:22:35;;;;;;;11.52;5.05;;;11.80;99.90;;;;;;5126729;27;20091;-82
2023/07/22 04:25:02;;;;;;;14.10;5.78;;;11.80;99.90;;;;;;5102641;28;20051;-82
2023/07/22 04:27:28;;;;;;;11.90;5.55;;;11.80;99.90;;;;;;5131795;27;20042;-82
2023/07/22 04:29:55;;;;;;;11.75;5.20;;;11.90;99.90;;;;;;5100678;27;20055;-82
2023/07/22 04:32:22;;;;;;;10.05;5.05;;;12.00;99.90;;;;;;5139709;27;20038;-82
2023/07/22 04:34:49;;;;;;;12.00;4.60;;;12.10;99.90;;;;;;5117428;27;20518;-82
2023/07/22 04:37:16;;;;;;;13.40;5.00;;;12.10;99.90;;;;;;5121593;27;20035;-82
2023/07/22 04:39:48;;;;;;;9.80;5.20;;;12.20;99.90;;;;;;5110939;28;20039;-82
2023/07/22 04:42:14;;;;;;;9.25;4.90;;;12.20;99.90;;;;;;5128876;27;20070;-82
2023/07/22 04:44:41;;;;;;;9.63;5.00;;;12.30;99.90;;;;;;5103102;27;20039;-82
2023/07/22 04:47:08;;;;;;;11.73;4.82;;;12.30;99.90;;;;;;5147107;27;20027;-81
2023/07/22 04:49:34;;;;;;;9.77;4.65;;;12.40;99.90;;;;;;5119860;28;20096;-82
2023/07/22 04:52:01;;;;;;;10.30;5.22;;;12.40;99.90;;;;;;5098567;27;20042;-82
2023/07/22 04:54:28;;;;;;;9.23;5.15;;;12.50;99.90;;;;;;5095567;27;20039;-81
2023/07/22 04:56:54;;;;;;;9.95;4.70;;;12.50;99.90;;;;;;5119276;28;20043;-82
2023/07/22 04:59:21;;;;;;;11.90;4.72;;;12.60;99.90;;;;;;5117481;27;20167;-82
2023/07/22 05:01:48;;;;;;;11.77;4.97;;;12.70;99.90;;;;;;5098067;28;20073;-82
2023/07/22 05:04:14;;;;;;;10.77;5.03;;;12.70;99.90;;;;;;5105836;27;20418;-82
2023/07/22 05:06:41;;;;;;;12.35;5.22;;;12.70;99.90;;;;;;5094928;27;20110;-82
2023/07/22 05:09:08;;;;;;;9.90;4.90;;;12.80;99.90;;;;;;5116907;28;20063;-82
2023/07/22 05:11:35;;;;;;;10.68;5.15;;;12.80;99.90;;;;;;5122979;28;20119;-82
2023/07/22 05:14:01;;;;;;;9.85;4.72;;;12.90;99.90;;;;;;5096951;28;20833;-82
2023/07/22 05:16:28;;;;;;;16.05;5.05;;;12.90;99.90;;;;;;5105601;28;20518;-83
2023/07/22 05:18:55;;;;;;;10.38;4.88;;;13.00;99.90;;;;;;5116821;28;20045;-82
2023/07/22 05:21:21;;;;;;;8.77;4.60;;;13.00;99.90;;;;;;5103997;27;20039;-82
2023/07/22 05:23:48;;;;;;;9.50;4.80;;;13.10;99.90;;;;;;5110509;28;20027;-83
2023/07/22 05:26:15;;;;;;;10.82;4.03;;;13.10;99.90;;;;;;5109589;27;20120;-83
2023/07/22 05:28:42;;;;;;;8.48;4.43;;;13.10;99.90;;;;;;5096121;27;20539;-83
2023/07/22 05:31:08;;;;;;;14.27;5.30;;;13.20;99.90;;;;;;5154877;27;20040;-83
2023/07/22 05:33:35;;;;;;;9.07;4.80;;;13.20;99.90;;;;;;5132265;27;20495;-83
2023/07/22 05:36:02;;;;;;;13.82;4.93;;;13.20;99.90;;;;;;5107267;27;20043;-83
2023/07/22 05:38:29;;;;;;;10.43;5.00;;;13.20;99.90;;;;;;5098413;28;20076;-83
2023/07/22 05:40:56;;;;;;;10.90;5.80;;;13.30;99.90;;;;;;5141686;28;20047;-83
2023/07/22 05:43:22;;;;;;;12.98;5.68;;;13.30;99.90;;;;;;5119662;28;20039;-82
2023/07/22 05:45:49;;;;;;;12.40;5.57;;;13.40;99.90;;;;;;5099629;28;20043;-82
2023/07/22 05:48:16;;;;;;;11.77;6.05;;;13.40;99.90;;;;;;5110738;28;20399;-83
2023/07/22 05:50:43;;;;;;;14.18;5.65;;;13.50;99.90;;;;;;5093399;28;20054;-82
2023/07/22 05:53:11;;;;;;;13.13;5.78;;;13.50;99.90;;;;;;5103938;27;20077;-81
2023/07/22 05:55:38;;;;;;;10.05;5.15;;;13.60;99.90;;;;;;5137918;27;20039;-82
2023/07/22 05:58:05;;;;;;;20.58;6.00;;;13.60;99.90;;;;;;5107531;27;20107;-83
2023/07/22 06:00:35;;;;;;;13.35;6.03;;;13.70;99.90;;;;;;5126375;28;20032;-83
2023/07/22 06:03:01;;;;;;;14.45;5.80;;;13.80;99.90;;;;;;5143805;28;20070;-83
2023/07/22 06:05:28;;;;;;;12.23;6.20;;;13.90;99.90;;;;;;5112341;28;20035;-83
2023/07/22 06:07:56;;;;;;;14.00;5.97;;;13.90;99.90;;;;;;5101653;28;20046;-83
2023/07/22 06:10:23;;;;;;;15.15;6.15;;;13.90;99.90;;;;;;5131359;28;20039;-83
2023/07/22 06:12:50;;;;;;;12.40;5.95;;;14.00;99.90;;;;;;5109656;28;20173;-82
2023/07/22 06:15:17;;;;;;;12.38;6.03;;;14.00;99.90;;;;;;5095090;28;20050;-83
2023/07/22 06:17:43;;;;;;;13.75;6.63;;;14.10;99.90;;;;;;5111921;28;20609;-83
2023/07/22 06:20:10;;;;;;;13.70;6.25;;;14.20;99.90;;;;;;5147735;28;20076;-83
2023/07/22 06:22:37;;;;;;;13.02;6.80;;;14.20;99.90;;;;;;5127874;28;20494;-83
2023/07/22 06:25:05;;;;;;;13.43;6.53;;;14.30;99.90;;;;;;5118064;28;20040;-83
2023/07/22 06:27:32;;;;;;;13.98;6.32;;;14.40;99.90;;;;;;5130564;27;20042;-83
2023/07/22 06:29:59;;;;;;;15.55;6.30;;;14.40;99.90;;;;;;5134547;27;20042;-83
2023/07/22 06:32:26;;;;;;;13.13;6.72;;;14.50;99.90;;;;;;5117282;27;20035;-83
2023/07/22 06:34:52;;;;;;;12.15;6.10;;;14.60;99.90;;;;;;5112581;28;20047;-83
2023/07/22 06:37:19;;;;;;;15.88;6.32;;;14.70;99.90;;;;;;5097382;28;20478;-83
2023/07/22 06:39:46;;;;;;;13.82;6.88;;;14.80;99.90;;;;;;5097008;27;20075;-83
2023/07/22 06:42:12;;;;;;;14.60;6.57;;;14.90;99.90;;;;;;5116105;27;20048;-84
2023/07/22 06:44:39;;;;;;;11.15;5.93;;;15.00;99.90;;;;;;5149888;27;20042;-82
2023/07/22 06:47:06;;;;;;;11.40;6.22;;;15.20;99.90;;;;;;5117226;27;20028;-83
2023/07/22 06:49:33;;;;;;;13.20;6.75;;;15.30;99.90;;;;;;5134296;27;20491;-83
2023/07/22 06:52:01;;;;;;;13.20;5.93;;;15.40;99.90;;;;;;5112920;28;20085;-83
2023/07/22 06:54:28;;;;;;;13.23;6.10;;;15.50;99.90;;;;;;5097314;27;20092;-83
2023/07/22 06:56:54;;;;;;;11.88;6.40;;;15.70;99.90;;;;;;5128119;28;20035;-82
2023/07/22 06:59:21;;;;;;;10.77;5.78;;;15.70;99.90;;;;;;5100985;28;20031;-83
2023/07/22 07:01:48;;;;;;;13.55;5.97;;;15.80;99.90;;;;;;5130079;28;20547;-83
2023/07/22 07:04:14;;;;;;;12.30;6.40;;;15.80;99.90;;;;;;5129996;28;20031;-82
2023/07/22 07:06:41;;;;;;;12.50;6.25;;;15.80;99.90;;;;;;5116944;27;20035;-83
2023/07/22 07:09:08;;;;;;;12.75;6.20;;;15.80;99.90;;;;;;5133856;27;20039;-83
2023/07/22 07:11:34;;;;;;;12.02;6.43;;;15.90;99.90;;;;;;5148371;27;20084;-83
2023/07/22 07:14:01;;;;;;;11.75;5.68;;;16.10;99.90;;;;;;5096298;28;20036;-83
2023/07/22 07:16:31;;;;;;;11.52;6.65;;;16.20;99.90;;;;;;5117862;28;20035;-82
2023/07/22 07:18:59;;;;;;;13.55;6.60;;;16.30;99.90;;;;;;5130669;27;20486;-82
2023/07/22 07:21:25;;;;;;;10.50;6.22;;;16.50;99.90;;;;;;5150024;27;20566;-82
2023/07/22 07:23:53;;;;;;;11.75;6.32;;;16.50;99.90;;;;;;5136039;27;20042;-83
2023/07/22 07:26:20;;;;;;;11.18;6.10;;;16.50;99.90;;;;;;5129885;27;20035;-82
2023/07/22 07:28:48;;;;;;;11.90;6.45;;;16.70;99.90;;;;;;5140940;27;20042;-83
2023/07/22 07:31:14;;;;;;;14.07;5.82;;;16.70;99.90;;;;;;5137026;27;20047;-82
2023/07/22 07:33:41;;;;;;;13.35;6.30;;;16.80;99.90;;;;;;5100400;28;20127;-82
2023/07/22 07:36:08;;;;;;;14.07;5.90;;;16.90;99.90;;;;;;5124987;28;20065;-85
2023/07/22 07:38:35;;;;;;;12.45;6.30;;;16.90;99.90;;;;;;5132970;28;20032;-83
2023/07/22 07:41:11;;;;;;;10.15;5.95;;;16.90;99.90;;;;;;5114460;27;20051;-83
2023/07/22 07:43:39;;;;;;;12.65;6.00;;;17.00;99.90;;;;;;5165418;27;20039;-82
2023/07/22 07:46:21;;;;;;;11.15;5.88;;;17.00;99.90;;;;;;5114526;28;20050;-82
2023/07/22 07:48:56;;;;;;;11.43;6.25;;;17.00;99.90;;;;;;5129283;28;20491;-83
2023/07/22 07:51:26;;;;;;;15.60;6.72;;;16.90;99.90;;;;;;5152061;27;20122;-83
2023/07/22 07:53:54;;;;;;;13.73;6.68;;;16.90;99.90;;;;;;5115227;27;20066;-83
2023/07/22 07:56:21;;;;;;;12.45;5.45;;;16.90;99.90;;;;;;5149845;27;20046;-82
2023/07/22 07:58:49;;;;;;;12.68;5.90;;;16.90;99.90;;;;;;5103220;28;20388;-84
2023/07/22 08:01:16;;;;;;;10.80;5.65;;;17.00;99.90;;;;;;5132655;27;20035;-83
2023/07/22 08:03:44;;;;;;;8.68;4.93;;;17.00;99.90;;;;;;5100107;27;20487;-84
2023/07/22 08:06:12;;;;;;;9.05;5.32;;;17.10;99.90;;;;;;5119991;28;20035;-83
2023/07/22 08:08:39;;;;;;;11.20;5.90;;;17.20;99.90;;;;;;5129333;28;20122;-83
2023/07/22 08:11:07;;;;;;;11.57;5.88;;;17.20;99.90;;;;;;5129303;28;20046;-84
2023/07/22 08:13:35;;;;;;;11.50;6.25;;;17.30;99.90;;;;;;5112550;28;20039;-85
2023/07/22 08:16:04;;;;;;;13.85;5.75;;;17.30;99.90;;;;;;5129620;27;20051;-83
2023/07/22 08:18:31;;;;;;;12.95;5.80;;;17.40;99.90;;;;;;5096267;28;20073;-89
2023/07/22 08:20:58;;;;;;;10.98;5.40;;;17.60;99.90;;;;;;5117040;28;20071;-84
2023/07/22 08:23:25;;;;;;;10.73;5.35;;;17.60;99.90;;;;;;5147048;27;20462;-82
2023/07/22 08:25:52;;;;;;;10.45;5.57;;;17.70;99.90;;;;;;5140308;28;20062;-83
2023/07/22 08:28:19;;;;;;;10.98;5.63;;;17.80;99.90;;;;;;5125853;28;20039;-84
2023/07/22 08:30:48;;;;;;;12.82;6.00;;;18.00;99.90;;;;;;5097803;27;20036;-84
2023/07/22 08:33:16;;;;;;;13.00;6.05;;;18.10;99.90;;;;;;5144918;28;20112;-84
2023/07/22 08:35:43;;;;;;;9.65;5.18;;;18.20;99.90;;;;;;5125060;28;20079;-84
2023/07/22 08:38:10;;;;;;;10.27;5.15;;;18.10;99.90;;;;;;5116019;28;20191;-85
2023/07/22 08:40:38;;;;;;;9.38;5.07;;;18.20;99.90;;;;;;5094895;28;20130;-84
2023/07/22 08:43:07;;;;;;;10.88;5.65;;;18.30;99.90;;;;;;5128550;28;20044;-83
2023/07/22 08:45:36;;;;;;;8.93;4.90;;;18.50;99.90;;;;;;5129199;28;20040;-85
2023/07/22 08:48:07;;;;;;;10.02;5.10;;;18.50;99.90;;;;;;5157477;27;20047;-84
2023/07/22 08:50:43;;;;;;;10.32;5.88;;;18.70;99.90;;;;;;5135380;28;20043;-84
2023/07/22 08:53:12;;;;;;;9.93;5.18;;;18.80;99.90;;;;;;5128546;28;20095;-84
2023/07/22 08:55:42;;;;;;;8.10;4.68;;;18.90;99.90;;;;;;5128928;27;20043;-84
2023/07/22 08:58:09;;;;;;;10.35;5.40;;;18.90;99.90;;;;;;5137220;27;20062;-84
2023/07/22 09:00:37;;;;;;;9.70;5.00;;;19.00;99.90;;;;;;5117626;28;20504;-83
2023/07/22 09:03:05;;;;;;;11.05;5.60;;;19.10;99.90;;;;;;5110785;28;20389;-83
2023/07/22 09:05:33;;;;;;;9.27;4.68;;;19.20;99.90;;;;;;5111139;28;20722;-83
2023/07/22 09:08:03;;;;;;;9.02;4.90;;;19.30;99.90;;;;;;5145632;27;20047;-85
2023/07/22 09:10:31;;;;;;;13.15;5.78;;;19.40;99.90;;;;;;5129286;28;20040;-84
2023/07/22 09:12:59;;;;;;;11.57;5.15;;;19.40;99.90;;;;;;5127834;28;20043;-84
2023/07/22 09:15:27;;;;;;;8.68;4.82;;;19.40;99.90;;;;;;5111650;28;20039;-85
2023/07/22 09:17:54;;;;;;;9.13;4.35;;;19.40;99.90;;;;;;5123596;27;20035;-85
2023/07/22 09:20:22;;;;;;;9.32;4.45;;;19.30;99.90;;;;;;5131911;27;20087;-85
2023/07/22 09:22:50;;;;;;;9.65;5.05;;;19.30;99.90;;;;;;5126368;28;20165;-85
2023/07/22 09:25:25;;;;;;;9.82;4.85;;;19.30;99.90;;;;;;5110454;28;20046;-84
2023/07/22 09:27:54;;;;;;;12.48;5.70;;;19.30;99.90;;;;;;5132657;27;20035;-83
2023/07/22 09:30:35;;;;;;;7.72;5.13;;;19.10;99.90;;;;;;5165494;27;20035;-87
2023/07/22 09:33:07;;;;;;;11.70;5.15;;;19.10;99.90;;;;;;5127645;28;20132;-85
2023/07/22 09:35:49;;;;;;;8.80;5.03;;;19.20;99.90;;;;;;5127849;28;20495;-83
2023/07/22 09:38:24;;;;;;;10.30;5.53;;;19.10;99.90;;;;;;5131710;27;20051;-84
2023/07/22 09:40:51;;;;;;;;;;;19.10;99.90;;;;;;5148489;27;20088;-85
2023/07/22 09:43:18;;;;;;;10.55;6.05;;;18.80;99.90;;;;;;5143936;27;20393;-84
2023/07/22 09:45:48;;;;;;;12.77;5.93;;;18.70;99.90;;;;;;5110924;28;20082;-84
2023/07/22 09:48:15;;;;;;;11.93;5.88;;;18.60;99.90;;;;;;5127231;28;20036;-85
2023/07/22 09:50:42;;;;;;;13.50;6.03;;;18.50;99.90;;;;;;5145107;27;20070;-84
2023/07/22 09:53:15;;;;;;;10.65;5.40;;;18.30;99.90;;;;;;5110760;28;20093;-86
2023/07/22 09:55:45;;;;;;;11.43;6.18;;;18.30;99.90;;;;;;5136932;28;20046;-85
2023/07/22 09:58:16;;;;;;;11.68;6.25;;;18.20;99.90;;;;;;5092726;28;20043;-85
2023/07/22 10:00:48;;;;;;;9.75;5.32;;;18.10;99.90;;;;;;5093987;28;20052;-89
2023/07/22 10:03:18;;;;;;;11.27;5.97;;;18.10;99.90;;;;;;5125665;28;20047;-84
2023/07/22 10:05:48;;;;;;;10.75;6.15;;;18.10;99.90;;;;;;5126317;28;20512;-84
2023/07/22 10:08:18;;;;;;;10.93;5.93;;;18.10;99.90;;;;;;5146657;28;20033;-84
2023/07/22 10:10:46;;;;;;;11.10;5.47;;;18.00;99.90;;;;;;5146551;28;20047;-84
2023/07/22 10:13:12;;;;;;;10.65;5.63;;;18.00;99.90;;;;;;5166379;27;20054;-84
2023/07/22 10:15:39;;;;;;;10.00;5.60;;;18.00;99.90;;;;;;5126497;28;20055;-84
2023/07/22 10:18:06;;;;;;;12.65;6.03;;;18.10;99.90;;;;;;5106930;28;20039;-83
2023/07/22 10:20:36;;;;;;;11.88;5.78;;;18.30;99.90;;;;;;5108902;28;20139;-83
2023/07/22 10:23:03;;;;;;;9.38;5.63;;;18.40;99.90;;;;;;5125840;28;20044;-84
2023/07/22 10:25:30;;;;;;;11.68;5.40;;;18.40;99.90;;;;;;5126944;28;20031;-84
2023/07/22 10:27:57;;;;;;;10.20;5.05;;;18.40;99.90;;;;;;5141875;28;20103;-84
2023/07/22 10:30:29;;;;;;;8.00;4.97;;;18.50;99.90;;;;;;5106281;28;20540;-83
2023/07/22 10:32:56;;;;;;;6.68;3.83;;;18.50;99.90;;;;;;5110058;28;20060;-84
2023/07/22 10:35:32;;;;;;;8.07;4.05;;;18.30;99.90;;;;;;5125847;28;20031;-84
2023/07/22 10:38:17;;;;;;;8.80;3.97;;;18.20;99.90;;;;;;5143200;28;20043;-84
2023/07/22 10:40:54;;;;;;;8.33;4.20;;;18.20;99.90;;;;;;5112872;28;20035;-84
2023/07/22 10:43:31;;;;;;;6.68;4.20;;;18.20;99.90;;;;;;5142636;28;20777;-84
2023/07/22 10:46:05;;;;;;;7.90;4.07;;;18.20;99.90;;;;;;5125511;28;20047;-84
2023/07/22 10:48:37;;;;;;;8.40;3.97;;;18.20;99.90;;;;;;5110019;28;20032;-84
2023/07/22 10:51:10;;;;;;;9.60;4.20;;;18.20;99.90;;;;;;5116454;28;20044;-84
2023/07/22 10:53:46;;;;;;;9.13;4.63;;;18.20;99.90;;;;;;5142416;28;20043;-84
2023/07/22 10:56:16;;;;;;;8.57;4.78;;;18.30;99.90;;;;;;5130371;28;20043;-84
2023/07/22 10:58:46;;;;;;;10.82;5.07;;;18.30;99.90;;;;;;5133041;28;20040;-84
2023/07/22 11:01:31;;;;;;;8.80;4.13;;;18.30;99.90;;;;;;5154605;28;20562;-83
2023/07/22 11:04:30;;;;;;;8.73;4.75;;;18.40;99.90;;;;;;5126049;28;20465;-84
2023/07/22 11:07:05;;;;;;;7.55;4.35;;;18.40;99.90;;;;;;5137875;28;20773;-84
2023/07/22 11:09:34;;;;;;;8.30;4.68;;;18.40;99.90;;;;;;5145923;28;20031;-84
2023/07/22 11:12:05;;;;;;;9.38;4.30;;;18.30;99.90;;;;;;5137161;28;20047;-83
2023/07/22 11:14:39;;;;;;;7.63;4.47;;;18.20;99.90;;;;;;5126260;28;20543;-83
2023/07/22 11:17:10;;;;;;;8.70;4.43;;;18.10;99.90;;;;;;5130548;28;20040;-82
2023/07/22 11:19:38;;;;;;;6.80;3.97;;;17.90;99.90;;;;;;5130106;27;20683;-82
2023/07/22 11:22:05;;;;;;;7.47;3.90;;;17.70;99.90;;;;;;5130433;27;20131;-83
2023/07/22 11:24:35;;;;;;;7.53;4.22;;;17.60;99.90;;;;;;5134210;28;20035;-84
2023/07/22 11:27:08;;;;;;;8.77;4.38;;;17.50;99.90;;;;;;5130106;28;20092;-83
2023/07/22 11:29:35;;;;;;;8.35;4.57;;;17.40;99.90;;;;;;5128462;28;20031;-83
2023/07/22 11:32:03;;;;;;;7.78;4.13;;;17.30;99.90;;;;;;5139494;27;20043;-83
2023/07/22 11:34:30;;;;;;;6.85;4.30;;;17.30;99.90;;;;;;5136752;28;20039;-84
2023/07/22 11:36:58;;;;;;;7.47;4.13;;;17.30;99.90;;;;;;5132991;28;20774;-90
2023/07/22 11:39:26;;;;;;;7.88;4.47;;;17.30;99.90;;;;;;5116518;28;20067;-84
2023/07/22 11:41:53;;;;;;;8.57;4.25;;;17.30;99.90;;;;;;5124335;28;20054;-84
2023/07/22 11:44:22;;;;;;;7.35;4.15;;;17.20;99.90;;;;;;5129475;27;20407;-84
2023/07/22 11:46:54;;;;;;;6.63;4.00;;;17.20;99.90;;;;;;5129973;28;20031;-83
2023/07/22 11:49:28;;;;;;;7.20;4.63;;;17.10;99.90;;;;;;5132485;27;20118;-84
2023/07/22 11:52:08;;;;;;;8.77;4.90;;;17.10;99.90;;;;;;5145833;27;20027;-83
2023/07/22 11:54:39;;;;;;;9.70;4.95;;;17.00;99.90;;;;;;5120130;27;20081;-83
2023/07/22 11:57:15;;;;;;;8.55;4.75;;;17.00;99.90;;;;;;5129704;27;20039;-83
2023/07/22 11:59:49;;;;;;;6.82;4.55;;;16.90;99.90;;;;;;5123150;27;20078;-83
2023/07/22 12:02:18;;;;;;;8.93;4.45;;;16.90;99.90;;;;;;5132362;28;20040;-83
2023/07/22 12:05:19;;;;;;;9.30;5.07;;;16.90;99.90;;;;;;5123179;27;20027;-83
2023/07/22 12:07:46;;;;;;;8.93;4.35;;;16.80;99.90;;;;;;5129585;28;20046;-83
2023/07/22 12:10:15;;;;;;;8.13;5.15;;;16.80;99.90;;;;;;5142478;27;20043;-82
2023/07/22 12:12:45;;;;;;;9.18;4.70;;;16.70;99.90;;;;;;5133048;28;20085;-83
2023/07/22 12:15:18;;;;;;;8.70;5.45;;;16.70;99.90;;;;;;5143045;27;20271;-83
2023/07/22 12:17:48;;;;;;;7.63;5.03;;;16.70;99.90;;;;;;5144088;27;20042;-82
2023/07/22 12:20:16;;;;;;;8.48;5.15;;;16.70;99.90;;;;;;5115969;28;20496;-83
2023/07/22 12:22:44;;;;;;;13.70;5.68;;;16.60;99.90;;;;;;5129066;28;20122;-83
2023/07/22 12:25:14;;;;;;;8.43;5.28;;;16.60;99.90;;;;;;5154693;27;20027;-84
2023/07/22 12:27:41;;;;;;;10.57;5.47;;;16.50;99.90;;;;;;5122433;28;20035;-84
2023/07/22 12:30:08;;;;;;;10.82;6.28;;;16.50;99.90;;;;;;5111703;28;20039;-82
2023/07/22 12:32:34;;;;;;;8.93;5.63;;;16.50;99.90;;;;;;5131000;27;20039;-82
2023/07/22 12:35:03;;;;;;;9.77;5.63;;;16.50;99.90;;;;;;5115191;27;20119;-83
2023/07/22 12:37:30;;;;;;;8.90;5.65;;;16.50;99.90;;;;;;5132029;27;20092;-83
2023/07/22 12:39:57;;;;;;;10.80;5.65;;;16.50;99.90;;;;;;5147422;27;20084;-83
2023/07/22 12:42:23;;;;;;;10.52;6.07;;;16.60;99.90;;;;;;5127056;28;20039;-83
2023/07/22 12:44:50;;;;;;;9.20;5.75;;;16.60;99.90;;;;;;5128296;28;20404;-83